Karratha Legendre Isalnd, Australia
Current Conditions -  °F | °C
As of 2:00 PM on Wednesday 22 Oct 2014 (Local Time) from YPPD Reporting Station
Clear Clear  
Wind Chill: 102°   Ceiling: Unl
Heat Index: 102°   Visibility: 6mi
Dew Point: 52°   Wind: 17mph
Humidity: 18%   Direction: 320°NW
Pressure: 29.8"   Gusts: NA
Location:  20.37°S, 116.85°E
Report Text: YPPD 220600Z 32015KT CAVOK 39/11 Q1009
Loading
Personal Weather Stations






























Interactive Weather Map
Tropical Storm Tracking
New forecast layout! Learn more

10-Day Weather Forecast

Advertisements
Track Severe Weather on mobile